sensor_id;sensor_type;location;lat;lon;timestamp;temperature;humidity
26599;DHT22;14240;51.064;16.612;2022-10-16T00:01:17;15.40;99.90
26599;DHT22;14240;51.064;16.612;2022-10-16T00:03:44;15.40;99.90
26599;DHT22;14240;51.064;16.612;2022-10-16T00:06:11;15.50;99.90
26599;DHT22;14240;51.064;16.612;2022-10-16T00:08:38;15.50;99.90
26599;DHT22;14240;51.064;16.612;2022-10-16T00:11:05;15.50;99.90
26599;DHT22;14240;51.064;16.612;2022-10-16T00:13:33;15.50;99.90
26599;DHT22;14240;51.064;16.612;2022-10-16T00:15:59;15.50;99.90
26599;DHT22;14240;51.064;16.612;2022-10-16T00:18:26;15.60;99.90
26599;DHT22;14240;51.064;16.612;2022-10-16T00:20:52;15.50;99.90
26599;DHT22;14240;51.064;16.612;2022-10-16T00:23:18;15.50;99.90
26599;DHT22;14240;51.064;16.612;2022-10-16T00:25:43;15.50;99.90
26599;DHT22;14240;51.064;16.612;2022-10-16T00:28:09;15.50;99.90
26599;DHT22;14240;51.064;16.612;2022-10-16T00:30:38;15.60;99.90
26599;DHT22;14240;51.064;16.612;2022-10-16T00:33:03;15.60;99.90
26599;DHT22;14240;51.064;16.612;2022-10-16T00:35:30;15.70;99.90
26599;DHT22;14240;51.064;16.612;2022-10-16T00:37:55;15.60;99.90
26599;DHT22;14240;51.064;16.612;2022-10-16T00:40:21;15.60;99.90
26599;DHT22;14240;51.064;16.612;2022-10-16T00:42:47;15.60;99.90
26599;DHT22;14240;51.064;16.612;2022-10-16T00:45:12;15.60;99.90
26599;DHT22;14240;51.064;16.612;2022-10-16T00:47:40;15.60;99.90
26599;DHT22;14240;51.064;16.612;2022-10-16T00:50:21;15.70;99.90
26599;DHT22;14240;51.064;16.612;2022-10-16T00:52:49;15.70;99.90
26599;DHT22;14240;51.064;16.612;2022-10-16T00:55:16;15.60;99.90
26599;DHT22;14240;51.064;16.612;2022-10-16T00:57:42;15.70;99.90
26599;DHT22;14240;51.064;16.612;2022-10-16T01:00:11;15.70;99.90
26599;DHT22;14240;51.064;16.612;2022-10-16T01:02:36;15.70;99.90
26599;DHT22;14240;51.064;16.612;2022-10-16T01:05:03;15.70;99.90
26599;DHT22;14240;51.064;16.612;2022-10-16T01:07:44;15.70;99.90
26599;DHT22;14240;51.064;16.612;2022-10-16T01:15:33;15.70;99.90
26599;DHT22;14240;51.064;16.612;2022-10-16T01:18:01;15.80;99.90
26599;DHT22;14240;51.064;16.612;2022-10-16T01:20:44;15.80;99.90
26599;DHT22;14240;51.064;16.612;2022-10-16T01:28:47;15.80;99.90
26599;DHT22;14240;51.064;16.612;2022-10-16T01:31:18;15.80;99.90
26599;DHT22;14240;51.064;16.612;2022-10-16T01:33:47;15.80;99.90
26599;DHT22;14240;51.064;16.612;2022-10-16T01:36:18;15.90;99.90
26599;DHT22;14240;51.064;16.612;2022-10-16T01:38:47;15.90;99.90
26599;DHT22;14240;51.064;16.612;2022-10-16T01:41:21;15.90;99.90
26599;DHT22;14240;51.064;16.612;2022-10-16T01:43:56;15.80;99.90
26599;DHT22;14240;51.064;16.612;2022-10-16T01:46:24;15.80;99.90
26599;DHT22;14240;51.064;16.612;2022-10-16T01:48:51;15.80;99.90
26599;DHT22;14240;51.064;16.612;2022-10-16T01:51:18;15.80;99.90
26599;DHT22;14240;51.064;16.612;2022-10-16T01:53:49;15.80;99.90
26599;DHT22;14240;51.064;16.612;2022-10-16T01:56:18;15.80;99.90
26599;DHT22;14240;51.064;16.612;2022-10-16T01:59:06;15.80;99.90
26599;DHT22;14240;51.064;16.612;2022-10-16T02:01:37;15.80;99.90
26599;DHT22;14240;51.064;16.612;2022-10-16T02:04:12;15.80;99.90
26599;DHT22;14240;51.064;16.612;2022-10-16T02:06:39;15.80;99.90
26599;DHT22;14240;51.064;16.612;2022-10-16T02:09:07;15.80;99.90
26599;DHT22;14240;51.064;16.612;2022-10-16T02:11:34;15.80;99.90
26599;DHT22;14240;51.064;16.612;2022-10-16T02:14:03;15.90;99.90
26599;DHT22;14240;51.064;16.612;2022-10-16T02:16:44;15.90;99.90
26599;DHT22;14240;51.064;16.612;2022-10-16T02:19:11;16.00;99.90
26599;DHT22;14240;51.064;16.612;2022-10-16T02:22:10;16.00;99.90
26599;DHT22;14240;51.064;16.612;2022-10-16T02:24:52;16.00;99.90
26599;DHT22;14240;51.064;16.612;2022-10-16T02:32:45;16.00;99.90
26599;DHT22;14240;51.064;16.612;2022-10-16T02:35:13;16.00;99.90
26599;DHT22;14240;51.064;16.612;2022-10-16T02:37:40;16.00;99.90
26599;DHT22;14240;51.064;16.612;2022-10-16T02:40:07;16.00;99.90
26599;DHT22;14240;51.064;16.612;2022-10-16T02:42:34;16.00;99.90
26599;DHT22;14240;51.064;16.612;2022-10-16T02:45:00;16.00;99.90
26599;DHT22;14240;51.064;16.612;2022-10-16T02:47:26;16.10;99.90
26599;DHT22;14240;51.064;16.612;2022-10-16T02:49:53;16.00;99.90
26599;DHT22;14240;51.064;16.612;2022-10-16T02:52:18;16.00;99.90
26599;DHT22;14240;51.064;16.612;2022-10-16T02:54:44;16.10;99.90
26599;DHT22;14240;51.064;16.612;2022-10-16T02:57:09;16.10;99.90
26599;DHT22;14240;51.064;16.612;2022-10-16T02:59:35;16.10;99.90
26599;DHT22;14240;51.064;16.612;2022-10-16T03:02:01;16.00;99.90
26599;DHT22;14240;51.064;16.612;2022-10-16T03:04:26;16.00;99.90
26599;DHT22;14240;51.064;16.612;2022-10-16T03:06:52;16.10;99.90
26599;DHT22;14240;51.064;16.612;2022-10-16T03:09:17;16.10;99.90
26599;DHT22;14240;51.064;16.612;2022-10-16T03:11:43;16.10;99.90
26599;DHT22;14240;51.064;16.612;2022-10-16T03:14:08;16.00;99.90
26599;DHT22;14240;51.064;16.612;2022-10-16T03:16:34;16.10;99.90
26599;DHT22;14240;51.064;16.612;2022-10-16T03:19:00;16.10;99.90
26599;DHT22;14240;51.064;16.612;2022-10-16T03:21:25;16.10;99.90
26599;DHT22;14240;51.064;16.612;2022-10-16T03:23:51;16.10;99.90
26599;DHT22;14240;51.064;16.612;2022-10-16T03:26:17;16.10;99.90
26599;DHT22;14240;51.064;16.612;2022-10-16T03:28:42;16.10;99.90
26599;DHT22;14240;51.064;16.612;2022-10-16T03:31:08;16.10;99.90
26599;DHT22;14240;51.064;16.612;2022-10-16T03:33:33;16.10;99.90
26599;DHT22;14240;51.064;16.612;2022-10-16T03:35:59;16.10;99.90
26599;DHT22;14240;51.064;16.612;2022-10-16T03:38:25;16.10;99.90
26599;DHT22;14240;51.064;16.612;2022-10-16T03:40:51;16.20;99.90
26599;DHT22;14240;51.064;16.612;2022-10-16T03:43:16;16.10;99.90
26599;DHT22;14240;51.064;16.612;2022-10-16T03:45:42;16.10;99.90
26599;DHT22;14240;51.064;16.612;2022-10-16T03:48:08;16.10;99.90
26599;DHT22;14240;51.064;16.612;2022-10-16T03:50:33;16.10;99.90
26599;DHT22;14240;51.064;16.612;2022-10-16T03:52:59;16.10;99.90
26599;DHT22;14240;51.064;16.612;2022-10-16T03:55:24;16.10;99.90
26599;DHT22;14240;51.064;16.612;2022-10-16T03:57:50;16.10;99.90
26599;DHT22;14240;51.064;16.612;2022-10-16T04:00:16;16.00;99.90
26599;DHT22;14240;51.064;16.612;2022-10-16T04:02:42;15.90;99.90
26599;DHT22;14240;51.064;16.612;2022-10-16T04:05:08;15.90;99.90
26599;DHT22;14240;51.064;16.612;2022-10-16T04:07:33;15.90;99.90
26599;DHT22;14240;51.064;16.612;2022-10-16T04:09:59;15.80;99.90
26599;DHT22;14240;51.064;16.612;2022-10-16T04:12:25;15.80;99.90
26599;DHT22;14240;51.064;16.612;2022-10-16T04:14:51;15.70;99.90
26599;DHT22;14240;51.064;16.612;2022-10-16T04:17:17;15.70;99.90
26599;DHT22;14240;51.064;16.612;2022-10-16T04:19:42;15.70;99.90
26599;DHT22;14240;51.064;16.612;2022-10-16T04:22:08;15.60;99.90
26599;DHT22;14240;51.064;16.612;2022-10-16T04:24:34;15.50;99.90
26599;DHT22;14240;51.064;16.612;2022-10-16T04:27:00;15.40;99.90
26599;DHT22;14240;51.064;16.612;2022-10-16T04:29:25;15.40;99.90
26599;DHT22;14240;51.064;16.612;2022-10-16T04:31:51;15.30;99.90
26599;DHT22;14240;51.064;16.612;2022-10-16T04:34:16;15.30;99.90
26599;DHT22;14240;51.064;16.612;2022-10-16T04:36:42;15.20;99.90
26599;DHT22;14240;51.064;16.612;2022-10-16T04:39:08;15.30;99.90
26599;DHT22;14240;51.064;16.612;2022-10-16T04:41:33;15.20;99.90
26599;DHT22;14240;51.064;16.612;2022-10-16T04:43:59;15.20;99.90
26599;DHT22;14240;51.064;16.612;2022-10-16T04:46:24;15.20;99.90
26599;DHT22;14240;51.064;16.612;2022-10-16T04:48:50;15.10;99.90
26599;DHT22;14240;51.064;16.612;2022-10-16T04:51:16;15.10;99.90
26599;DHT22;14240;51.064;16.612;2022-10-16T04:53:42;15.10;99.90
26599;DHT22;14240;51.064;16.612;2022-10-16T04:56:07;15.00;99.90
26599;DHT22;14240;51.064;16.612;2022-10-16T04:58:33;15.00;99.90
26599;DHT22;14240;51.064;16.612;2022-10-16T05:00:58;15.10;99.90
26599;DHT22;14240;51.064;16.612;2022-10-16T05:03:24;15.10;99.90
26599;DHT22;14240;51.064;16.612;2022-10-16T05:05:50;15.20;99.90
26599;DHT22;14240;51.064;16.612;2022-10-16T05:08:16;15.30;99.90
26599;DHT22;14240;51.064;16.612;2022-10-16T05:10:42;15.30;99.90
26599;DHT22;14240;51.064;16.612;2022-10-16T05:13:09;15.30;99.90
26599;DHT22;14240;51.064;16.612;2022-10-16T05:15:34;15.30;99.90
26599;DHT22;14240;51.064;16.612;2022-10-16T05:18:00;15.30;99.90
26599;DHT22;14240;51.064;16.612;2022-10-16T05:20:25;15.40;99.90
26599;DHT22;14240;51.064;16.612;2022-10-16T05:22:51;15.50;99.90
26599;DHT22;14240;51.064;16.612;2022-10-16T05:25:17;15.50;99.90
26599;DHT22;14240;51.064;16.612;2022-10-16T05:27:46;15.50;99.90
26599;DHT22;14240;51.064;16.612;2022-10-16T05:30:12;15.60;99.90
26599;DHT22;14240;51.064;16.612;2022-10-16T05:32:38;15.60;99.90
26599;DHT22;14240;51.064;16.612;2022-10-16T05:35:04;15.70;99.90
26599;DHT22;14240;51.064;16.612;2022-10-16T05:37:29;15.70;99.90
26599;DHT22;14240;51.064;16.612;2022-10-16T05:39:55;15.70;99.90
26599;DHT22;14240;51.064;16.612;2022-10-16T05:42:20;15.70;99.90
26599;DHT22;14240;51.064;16.612;2022-10-16T05:44:46;15.60;99.90
26599;DHT22;14240;51.064;16.612;2022-10-16T05:47:15;15.70;99.90
26599;DHT22;14240;51.064;16.612;2022-10-16T05:49:40;15.70;99.90
26599;DHT22;14240;51.064;16.612;2022-10-16T05:52:06;15.80;99.90
26599;DHT22;14240;51.064;16.612;2022-10-16T05:54:32;15.80;99.90
26599;DHT22;14240;51.064;16.612;2022-10-16T05:56:57;15.80;99.90
26599;DHT22;14240;51.064;16.612;2022-10-16T05:59:23;15.90;99.90
26599;DHT22;14240;51.064;16.612;2022-10-16T06:01:48;15.90;99.90
26599;DHT22;14240;51.064;16.612;2022-10-16T06:04:14;15.90;99.90
26599;DHT22;14240;51.064;16.612;2022-10-16T06:06:40;15.90;99.90
26599;DHT22;14240;51.064;16.612;2022-10-16T06:09:05;15.90;99.90
26599;DHT22;14240;51.064;16.612;2022-10-16T06:11:32;16.00;99.90
26599;DHT22;14240;51.064;16.612;2022-10-16T06:14:00;16.00;99.90
26599;DHT22;14240;51.064;16.612;2022-10-16T06:16:28;16.10;99.90
26599;DHT22;14240;51.064;16.612;2022-10-16T06:18:55;16.10;99.90
26599;DHT22;14240;51.064;16.612;2022-10-16T06:21:26;16.10;99.90
26599;DHT22;14240;51.064;16.612;2022-10-16T06:23:53;16.20;99.90
26599;DHT22;14240;51.064;16.612;2022-10-16T06:26:23;16.20;99.90
26599;DHT22;14240;51.064;16.612;2022-10-16T06:28:49;16.20;99.90
26599;DHT22;14240;51.064;16.612;2022-10-16T06:31:15;16.20;99.90
26599;DHT22;14240;51.064;16.612;2022-10-16T06:33:42;16.20;99.90
26599;DHT22;14240;51.064;16.612;2022-10-16T06:36:13;16.30;99.90
26599;DHT22;14240;51.064;16.612;2022-10-16T06:38:40;16.30;99.90
26599;DHT22;14240;51.064;16.612;2022-10-16T06:41:07;16.40;99.90
26599;DHT22;14240;51.064;16.612;2022-10-16T06:43:34;16.40;99.90
26599;DHT22;14240;51.064;16.612;2022-10-16T06:46:05;16.40;99.90
26599;DHT22;14240;51.064;16.612;2022-10-16T06:48:33;16.40;99.90
26599;DHT22;14240;51.064;16.612;2022-10-16T06:53:32;16.60;99.90
26599;DHT22;14240;51.064;16.612;2022-10-16T06:56:16;16.60;99.90
26599;DHT22;14240;51.064;16.612;2022-10-16T06:58:42;16.60;99.90
26599;DHT22;14240;51.064;16.612;2022-10-16T07:01:09;16.70;99.90
26599;DHT22;14240;51.064;16.612;2022-10-16T07:03:39;16.70;99.90
26599;DHT22;14240;51.064;16.612;2022-10-16T07:06:06;16.70;99.90
26599;DHT22;14240;51.064;16.612;2022-10-16T07:08:38;16.80;99.90
26599;DHT22;14240;51.064;16.612;2022-10-16T07:11:06;16.80;99.90
26599;DHT22;14240;51.064;16.612;2022-10-16T07:13:36;16.80;99.90
26599;DHT22;14240;51.064;16.612;2022-10-16T07:18:32;16.90;99.90
26599;DHT22;14240;51.064;16.612;2022-10-16T07:21:17;16.90;99.90
26599;DHT22;14240;51.064;16.612;2022-10-16T07:23:44;16.90;99.90
26599;DHT22;14240;51.064;16.612;2022-10-16T07:26:11;17.00;99.90
26599;DHT22;14240;51.064;16.612;2022-10-16T07:28:37;17.10;99.90
26599;DHT22;14240;51.064;16.612;2022-10-16T07:31:05;17.10;99.90
26599;DHT22;14240;51.064;16.612;2022-10-16T07:33:32;17.10;99.90
26599;DHT22;14240;51.064;16.612;2022-10-16T07:35:58;17.40;99.90
26599;DHT22;14240;51.064;16.612;2022-10-16T07:38:24;17.20;99.90
26599;DHT22;14240;51.064;16.612;2022-10-16T07:40:56;17.20;99.90
26599;DHT22;14240;51.064;16.612;2022-10-16T07:43:22;17.30;99.90
26599;DHT22;14240;51.064;16.612;2022-10-16T07:45:49;17.30;99.90
26599;DHT22;14240;51.064;16.612;2022-10-16T07:48:16;17.40;99.90
26599;DHT22;14240;51.064;16.612;2022-10-16T07:50:42;17.40;99.90
26599;DHT22;14240;51.064;16.612;2022-10-16T07:53:08;17.60;99.90
26599;DHT22;14240;51.064;16.612;2022-10-16T07:55:34;17.50;99.90
26599;DHT22;14240;51.064;16.612;2022-10-16T07:57:59;17.50;99.90
26599;DHT22;14240;51.064;16.612;2022-10-16T08:00:25;17.60;99.90
26599;DHT22;14240;51.064;16.612;2022-10-16T08:02:51;17.70;99.90
26599;DHT22;14240;51.064;16.612;2022-10-16T08:05:16;17.70;99.90
26599;DHT22;14240;51.064;16.612;2022-10-16T08:07:42;17.80;99.90
26599;DHT22;14240;51.064;16.612;2022-10-16T08:10:16;17.80;99.90
26599;DHT22;14240;51.064;16.612;2022-10-16T08:12:42;17.90;99.90
26599;DHT22;14240;51.064;16.612;2022-10-16T08:15:08;18.00;99.90
26599;DHT22;14240;51.064;16.612;2022-10-16T08:17:34;18.00;99.90
26599;DHT22;14240;51.064;16.612;2022-10-16T08:19:59;18.00;99.90
26599;DHT22;14240;51.064;16.612;2022-10-16T08:22:25;18.10;99.90
26599;DHT22;14240;51.064;16.612;2022-10-16T08:24:50;18.10;99.90
26599;DHT22;14240;51.064;16.612;2022-10-16T08:27:16;18.20;99.90
26599;DHT22;14240;51.064;16.612;2022-10-16T08:29:41;18.20;99.90
26599;DHT22;14240;51.064;16.612;2022-10-16T08:32:07;18.30;99.90
26599;DHT22;14240;51.064;16.612;2022-10-16T08:34:33;18.30;99.90
26599;DHT22;14240;51.064;16.612;2022-10-16T08:36:58;18.40;99.90
26599;DHT22;14240;51.064;16.612;2022-10-16T08:39:24;18.40;99.90
26599;DHT22;14240;51.064;16.612;2022-10-16T08:45:15;18.60;99.90
26599;DHT22;14240;51.064;16.612;2022-10-16T08:50:24;18.60;99.90
26599;DHT22;14240;51.064;16.612;2022-10-16T08:52:50;18.70;99.90
26599;DHT22;14240;51.064;16.612;2022-10-16T08:55:49;18.80;99.90
26599;DHT22;14240;51.064;16.612;2022-10-16T08:58:21;19.00;99.90
26599;DHT22;14240;51.064;16.612;2022-10-16T09:00:51;19.20;99.90
26599;DHT22;14240;51.064;16.612;2022-10-16T09:06:56;19.60;99.90
26599;DHT22;14240;51.064;16.612;2022-10-16T09:12:19;19.90;99.90
26599;DHT22;14240;51.064;16.612;2022-10-16T09:18:11;20.10;99.90
26599;DHT22;14240;51.064;16.612;2022-10-16T09:23:18;20.40;99.90
26599;DHT22;14240;51.064;16.612;2022-10-16T09:25:47;20.50;99.90
26599;DHT22;14240;51.064;16.612;2022-10-16T09:28:13;20.50;99.90
26599;DHT22;14240;51.064;16.612;2022-10-16T09:30:40;20.50;99.90
26599;DHT22;14240;51.064;16.612;2022-10-16T09:33:06;20.50;99.90
26599;DHT22;14240;51.064;16.612;2022-10-16T09:35:44;20.40;99.90
26599;DHT22;14240;51.064;16.612;2022-10-16T09:38:24;20.40;99.90
26599;DHT22;14240;51.064;16.612;2022-10-16T09:40:51;20.50;99.90
26599;DHT22;14240;51.064;16.612;2022-10-16T09:43:24;20.60;99.90
26599;DHT22;14240;51.064;16.612;2022-10-16T09:46:03;20.70;99.90
26599;DHT22;14240;51.064;16.612;2022-10-16T09:48:48;20.90;99.90
26599;DHT22;14240;51.064;16.612;2022-10-16T09:51:34;21.00;99.90
26599;DHT22;14240;51.064;16.612;2022-10-16T09:56:36;21.30;99.90
26599;DHT22;14240;51.064;16.612;2022-10-16T09:59:15;21.40;99.90
26599;DHT22;14240;51.064;16.612;2022-10-16T10:01:44;21.50;99.90
26599;DHT22;14240;51.064;16.612;2022-10-16T10:04:11;21.60;99.90
26599;DHT22;14240;51.064;16.612;2022-10-16T10:07:01;21.70;99.90
26599;DHT22;14240;51.064;16.612;2022-10-16T10:11:59;21.90;99.90
26599;DHT22;14240;51.064;16.612;2022-10-16T10:14:45;21.90;99.90
26599;DHT22;14240;51.064;16.612;2022-10-16T10:30:25;22.50;99.90
26599;DHT22;14240;51.064;16.612;2022-10-16T10:38:04;22.60;99.90
26599;DHT22;14240;51.064;16.612;2022-10-16T10:43:39;22.50;99.90
26599;DHT22;14240;51.064;16.612;2022-10-16T10:46:03;22.50;99.90
26599;DHT22;14240;51.064;16.612;2022-10-16T10:51:05;22.50;99.90
26599;DHT22;14240;51.064;16.612;2022-10-16T10:56:42;22.70;99.90
26599;DHT22;14240;51.064;16.612;2022-10-16T11:02:18;22.90;99.90
26599;DHT22;14240;51.064;16.612;2022-10-16T11:07:25;22.90;99.90
26599;DHT22;14240;51.064;16.612;2022-10-16T11:10:02;23.00;99.90
26599;DHT22;14240;51.064;16.612;2022-10-16T11:12:52;22.90;99.90
26599;DHT22;14240;51.064;16.612;2022-10-16T11:15:23;23.00;99.90
26599;DHT22;14240;51.064;16.612;2022-10-16T11:18:11;23.00;99.90
26599;DHT22;14240;51.064;16.612;2022-10-16T11:21:14;23.10;99.90
26599;DHT22;14240;51.064;16.612;2022-10-16T11:23:49;23.10;99.90
26599;DHT22;14240;51.064;16.612;2022-10-16T11:26:21;23.20;99.90
26599;DHT22;14240;51.064;16.612;2022-10-16T11:28:51;23.20;99.90
26599;DHT22;14240;51.064;16.612;2022-10-16T11:34:02;23.10;99.90
26599;DHT22;14240;51.064;16.612;2022-10-16T11:39:25;23.10;99.90
26599;DHT22;14240;51.064;16.612;2022-10-16T11:44:45;23.00;99.90
26599;DHT22;14240;51.064;16.612;2022-10-16T11:49:58;22.90;99.90
26599;DHT22;14240;51.064;16.612;2022-10-16T11:52:31;22.80;99.90
26599;DHT22;14240;51.064;16.612;2022-10-16T11:55:20;22.70;99.90
26599;DHT22;14240;51.064;16.612;2022-10-16T11:57:53;22.60;99.90
26599;DHT22;14240;51.064;16.612;2022-10-16T12:00:37;22.50;99.90
26599;DHT22;14240;51.064;16.612;2022-10-16T12:08:17;22.30;99.90
26599;DHT22;14240;51.064;16.612;2022-10-16T12:10:45;22.30;99.90
26599;DHT22;14240;51.064;16.612;2022-10-16T12:18:42;22.00;99.90
26599;DHT22;14240;51.064;16.612;2022-10-16T12:21:08;21.90;99.90
26599;DHT22;14240;51.064;16.612;2022-10-16T12:23:46;21.80;99.90
26599;DHT22;14240;51.064;16.612;2022-10-16T12:26:12;21.80;99.90
26599;DHT22;14240;51.064;16.612;2022-10-16T12:28:37;21.70;99.90
26599;DHT22;14240;51.064;16.612;2022-10-16T12:31:06;21.60;99.90
26599;DHT22;14240;51.064;16.612;2022-10-16T12:33:36;21.60;99.90
26599;DHT22;14240;51.064;16.612;2022-10-16T12:36:04;21.60;99.90
26599;DHT22;14240;51.064;16.612;2022-10-16T12:38:46;21.60;99.90
26599;DHT22;14240;51.064;16.612;2022-10-16T12:41:12;21.60;99.90
26599;DHT22;14240;51.064;16.612;2022-10-16T12:43:46;21.50;99.90
26599;DHT22;14240;51.064;16.612;2022-10-16T12:48:40;21.40;99.90
26599;DHT22;14240;51.064;16.612;2022-10-16T12:51:34;21.50;99.90
26599;DHT22;14240;51.064;16.612;2022-10-16T12:54:01;21.40;99.90
26599;DHT22;14240;51.064;16.612;2022-10-16T12:56:51;21.40;99.90
26599;DHT22;14240;51.064;16.612;2022-10-16T13:19:09;21.50;99.90
26599;DHT22;14240;51.064;16.612;2022-10-16T13:22:06;21.50;99.90
26599;DHT22;14240;51.064;16.612;2022-10-16T13:25:19;21.50;99.90
26599;DHT22;14240;51.064;16.612;2022-10-16T13:30:21;21.50;99.90
26599;DHT22;14240;51.064;16.612;2022-10-16T13:32:49;21.50;99.90
26599;DHT22;14240;51.064;16.612;2022-10-16T13:35:23;21.60;99.90
26599;DHT22;14240;51.064;16.612;2022-10-16T13:37:50;21.60;99.90
26599;DHT22;14240;51.064;16.612;2022-10-16T13:40:23;21.70;99.90
26599;DHT22;14240;51.064;16.612;2022-10-16T13:42:50;21.70;99.90
26599;DHT22;14240;51.064;16.612;2022-10-16T13:45:20;21.80;99.90
26599;DHT22;14240;51.064;16.612;2022-10-16T13:47:46;21.70;99.90
26599;DHT22;14240;51.064;16.612;2022-10-16T13:50:15;21.70;99.90
26599;DHT22;14240;51.064;16.612;2022-10-16T13:52:41;21.70;99.90
26599;DHT22;14240;51.064;16.612;2022-10-16T13:55:18;21.70;99.90
26599;DHT22;14240;51.064;16.612;2022-10-16T13:57:44;21.70;99.90
26599;DHT22;14240;51.064;16.612;2022-10-16T14:00:24;21.70;99.90
26599;DHT22;14240;51.064;16.612;2022-10-16T14:02:55;21.70;99.90
26599;DHT22;14240;51.064;16.612;2022-10-16T14:05:23;21.70;99.90
26599;DHT22;14240;51.064;16.612;2022-10-16T14:07:50;21.70;99.90
26599;DHT22;14240;51.064;16.612;2022-10-16T14:10:26;21.70;99.90
26599;DHT22;14240;51.064;16.612;2022-10-16T14:12:59;21.80;99.90
26599;DHT22;14240;51.064;16.612;2022-10-16T14:15:26;21.70;99.90
26599;DHT22;14240;51.064;16.612;2022-10-16T14:17:52;21.70;99.90
26599;DHT22;14240;51.064;16.612;2022-10-16T14:20:19;21.70;99.90
26599;DHT22;14240;51.064;16.612;2022-10-16T14:22:46;21.60;99.90
26599;DHT22;14240;51.064;16.612;2022-10-16T14:28:15;21.60;99.90
26599;DHT22;14240;51.064;16.612;2022-10-16T14:36:11;21.50;99.90
26599;DHT22;14240;51.064;16.612;2022-10-16T14:38:39;21.50;99.90
26599;DHT22;14240;51.064;16.612;2022-10-16T14:41:05;21.50;99.90
26599;DHT22;14240;51.064;16.612;2022-10-16T14:43:39;21.50;99.90
26599;DHT22;14240;51.064;16.612;2022-10-16T14:46:20;21.50;99.90
26599;DHT22;14240;51.064;16.612;2022-10-16T14:48:48;21.40;99.90
26599;DHT22;14240;51.064;16.612;2022-10-16T14:51:16;21.40;99.90
26599;DHT22;14240;51.064;16.612;2022-10-16T14:53:43;21.40;99.90
26599;DHT22;14240;51.064;16.612;2022-10-16T14:56:16;21.40;99.90
26599;DHT22;14240;51.064;16.612;2022-10-16T14:58:42;21.40;99.90
26599;DHT22;14240;51.064;16.612;2022-10-16T15:01:10;21.40;99.90
26599;DHT22;14240;51.064;16.612;2022-10-16T15:03:37;21.40;99.90
26599;DHT22;14240;51.064;16.612;2022-10-16T15:06:03;21.40;99.90
26599;DHT22;14240;51.064;16.612;2022-10-16T15:08:29;21.30;99.90
26599;DHT22;14240;51.064;16.612;2022-10-16T15:10:54;21.30;99.90
26599;DHT22;14240;51.064;16.612;2022-10-16T15:13:20;21.30;99.90
26599;DHT22;14240;51.064;16.612;2022-10-16T15:15:47;21.20;99.90
26599;DHT22;14240;51.064;16.612;2022-10-16T15:18:14;21.20;99.90
26599;DHT22;14240;51.064;16.612;2022-10-16T15:20:47;21.10;99.90
26599;DHT22;14240;51.064;16.612;2022-10-16T15:23:15;21.10;99.90
26599;DHT22;14240;51.064;16.612;2022-10-16T15:25:50;21.10;99.90
26599;DHT22;14240;51.064;16.612;2022-10-16T15:28:16;21.00;99.90
26599;DHT22;14240;51.064;16.612;2022-10-16T15:30:43;20.90;99.90
26599;DHT22;14240;51.064;16.612;2022-10-16T15:33:23;20.90;99.90
26599;DHT22;14240;51.064;16.612;2022-10-16T15:35:50;20.90;99.90
26599;DHT22;14240;51.064;16.612;2022-10-16T15:38:18;20.80;99.90
26599;DHT22;14240;51.064;16.612;2022-10-16T15:40:44;20.80;99.90
26599;DHT22;14240;51.064;16.612;2022-10-16T15:43:09;20.80;99.90
26599;DHT22;14240;51.064;16.612;2022-10-16T15:45:35;20.70;99.90
26599;DHT22;14240;51.064;16.612;2022-10-16T15:48:01;20.70;99.90
26599;DHT22;14240;51.064;16.612;2022-10-16T15:50:27;20.70;99.90
26599;DHT22;14240;51.064;16.612;2022-10-16T15:52:53;20.60;99.90
26599;DHT22;14240;51.064;16.612;2022-10-16T15:55:19;20.60;99.90
26599;DHT22;14240;51.064;16.612;2022-10-16T15:57:45;20.60;99.90
26599;DHT22;14240;51.064;16.612;2022-10-16T16:00:13;20.50;99.90
26599;DHT22;14240;51.064;16.612;2022-10-16T16:02:41;20.50;99.90
26599;DHT22;14240;51.064;16.612;2022-10-16T16:05:08;20.50;99.90
26599;DHT22;14240;51.064;16.612;2022-10-16T16:07:35;20.40;99.90
26599;DHT22;14240;51.064;16.612;2022-10-16T16:10:01;20.40;99.90
26599;DHT22;14240;51.064;16.612;2022-10-16T16:12:28;20.40;99.90
26599;DHT22;14240;51.064;16.612;2022-10-16T16:14:53;20.30;99.90
26599;DHT22;14240;51.064;16.612;2022-10-16T16:17:19;20.40;99.90
26599;DHT22;14240;51.064;16.612;2022-10-16T16:19:45;20.30;99.90
26599;DHT22;14240;51.064;16.612;2022-10-16T16:22:11;20.20;99.90
26599;DHT22;14240;51.064;16.612;2022-10-16T16:24:37;20.20;99.90
26599;DHT22;14240;51.064;16.612;2022-10-16T16:27:02;20.20;99.90
26599;DHT22;14240;51.064;16.612;2022-10-16T16:29:28;20.10;99.90
26599;DHT22;14240;51.064;16.612;2022-10-16T16:31:53;20.10;99.90
26599;DHT22;14240;51.064;16.612;2022-10-16T16:34:24;20.00;99.90
26599;DHT22;14240;51.064;16.612;2022-10-16T16:36:50;20.00;99.90
26599;DHT22;14240;51.064;16.612;2022-10-16T16:39:16;20.00;99.90
26599;DHT22;14240;51.064;16.612;2022-10-16T16:41:42;19.90;99.90
26599;DHT22;14240;51.064;16.612;2022-10-16T16:44:09;19.90;99.90
26599;DHT22;14240;51.064;16.612;2022-10-16T16:46:36;19.90;99.90
26599;DHT22;14240;51.064;16.612;2022-10-16T16:49:03;19.80;99.90
26599;DHT22;14240;51.064;16.612;2022-10-16T16:51:28;19.80;99.90
26599;DHT22;14240;51.064;16.612;2022-10-16T16:53:55;19.80;99.90
26599;DHT22;14240;51.064;16.612;2022-10-16T16:56:22;19.70;99.90
26599;DHT22;14240;51.064;16.612;2022-10-16T16:58:50;19.70;99.90
26599;DHT22;14240;51.064;16.612;2022-10-16T17:01:15;19.70;99.90
26599;DHT22;14240;51.064;16.612;2022-10-16T17:03:42;19.70;99.90
26599;DHT22;14240;51.064;16.612;2022-10-16T17:06:13;19.60;99.90
26599;DHT22;14240;51.064;16.612;2022-10-16T17:08:39;19.60;99.90
26599;DHT22;14240;51.064;16.612;2022-10-16T17:11:06;19.60;99.90
26599;DHT22;14240;51.064;16.612;2022-10-16T17:13:36;19.60;99.90
26599;DHT22;14240;51.064;16.612;2022-10-16T17:16:04;19.50;99.90
26599;DHT22;14240;51.064;16.612;2022-10-16T17:18:31;19.50;99.90
26599;DHT22;14240;51.064;16.612;2022-10-16T17:21:01;19.50;99.90
26599;DHT22;14240;51.064;16.612;2022-10-16T17:23:27;19.50;99.90
26599;DHT22;14240;51.064;16.612;2022-10-16T17:25:53;19.50;99.90
26599;DHT22;14240;51.064;16.612;2022-10-16T17:28:19;19.40;99.90
26599;DHT22;14240;51.064;16.612;2022-10-16T17:30:44;19.40;99.90
26599;DHT22;14240;51.064;16.612;2022-10-16T17:33:11;19.40;99.90
26599;DHT22;14240;51.064;16.612;2022-10-16T17:35:38;19.30;99.90
26599;DHT22;14240;51.064;16.612;2022-10-16T17:38:04;19.30;99.90